Atmospheric History
02/08/2018 18:19  to  2/9/2018 18:19
Change End Date:
To complete the export process:
1) Select all of the data below
2) Copy the data to the clipboard
3) Open a word processor such as Notepad
4) Paste the data into the word processor
5) Save the file

Date/Time (MST), AirTemp, RH, Dewpoint ,AvgWindSpeed, GustWindSpeed, WindDirection, PrecipType, PrecipIntensity, PrecipAccumulation, PrecipRate
02/09/2018 18:12, 12, 84, 8 ,2, 4, NE, Yes, , ,  
02/09/2018 18:11, 12, 84, 8 ,2, 4, E, Yes, , ,  
02/09/2018 18:02, 13, 83, 9 ,5, 6, NW, None, None, ,  
02/09/2018 17:56, 14, 83, 10 ,0, 1, SW, Yes, , ,  
02/09/2018 17:52, 14, 83, 10 ,0, 1, NW, Yes, , ,  
02/09/2018 17:42, 14, 82, 10 ,0, 1, N, Yes, , ,  
02/09/2018 17:41, 14, 82, 10 ,0, 1, N, Yes, , ,  
02/09/2018 17:32, 14, 82, 9 ,1, 1, N, Yes, , ,  
02/09/2018 17:26, 14, 82, 10 ,0, 1, S, Yes, , ,  
02/09/2018 17:22, 14, 81, 9 ,1, 2, S, Yes, , ,  
02/09/2018 17:12, 13, 81, 8 ,2, 3, S, None, None, ,  
02/09/2018 17:12, 13, 81, 9 ,2, 3, S, None, None, ,  
02/09/2018 17:02, 15, 80, 10 ,0, 2, E, None, None, ,  
02/09/2018 16:56, 14, 80, 10 ,0, 2, NW, None, None, ,  
02/09/2018 16:52, 14, 80, 9 ,1, 2, NW, None, None, ,  
02/09/2018 16:42, 15, 78, 9 ,0, 1, NW, None, None, ,  
02/09/2018 16:41, 15, 78, 9 ,0, 1, NW, None, None, ,  
02/09/2018 16:31, 15, 78, 10 ,0, 1, NW, None, None, ,  
02/09/2018 16:27, 15, 78, 10 ,1, 2, W, Yes, , ,  
02/09/2018 16:21, 15, 79, 10 ,1, 2, NW, Yes, , ,  
02/09/2018 16:11, 15, 78, 9 ,0, 2, W, Yes, , ,  
02/09/2018 16:11, 15, 78, 9 ,0, 2, W, Yes, , ,  
02/09/2018 16:01, 15, 79, 10 ,0, 1, NW, Yes, , ,  
02/09/2018 15:56, 15, 80, 10 ,1, 1, W, Yes, , ,  
02/09/2018 15:51, 13, 80, 9 ,1, 4, W, None, None, ,  
02/09/2018 15:41, 13, 80, 8 ,3, 4, W, None, None, ,  
02/09/2018 15:41, 13, 80, 8 ,3, 4, W, None, None, ,  
02/09/2018 15:31, 14, 80, 9 ,2, 7, NW, None, None, ,  
02/09/2018 15:27, 14, 80, 9 ,4, 6, NW, None, None, ,  
02/09/2018 15:21, 13, 81, 9 ,1, 7, NW, None, None, ,  
02/09/2018 15:11, 14, 79, 8 ,5, 12, NW, None, None, ,  
02/09/2018 15:11, 14, 79, 8 ,6, 12, NW, None, None, ,  
02/09/2018 15:01, 17, 76, 11 ,1, 1, SW, Yes, , ,  
02/09/2018 14:57, 17, 76, 11 ,0, 2, SW, None, None, ,  
02/09/2018 14:51, 17, 77, 11 ,1, 2, SW, Yes, , ,  
02/09/2018 14:42, 17, 79, 11 ,0, 4, SW, None, None, ,  
02/09/2018 14:41, 16, 79, 11 ,0, 4, SW, None, None, ,  
02/09/2018 14:31, 15, 81, 10 ,4, 5, S, None, None, ,  
02/09/2018 14:27, 14, 79, 9 ,2, 4, SE, None, None, ,  
02/09/2018 14:21, 14, 77, 9 ,2, 2, SW, None, None, ,  
02/09/2018 14:11, 15, 79, 10 ,1, 7, W, None, None, ,  
02/09/2018 14:11, 15, 79, 10 ,1, 7, SW, None, None, ,  
02/09/2018 14:01, 15, 75, 8 ,1, 4, SW, None, None, ,  
02/09/2018 13:56, 16, 75, 10 ,1, 2, W, None, None, ,  
02/09/2018 13:51, 16, 76, 10 ,0, 6, NW, None, None, ,  
02/09/2018 13:42, 16, 73, 9 ,4, 6, N, None, None, ,  
02/09/2018 13:41, 16, 73, 9 ,4, 6, N, None, None, ,  
02/09/2018 13:31, 16, 73, 9 ,1, 7, W, None, None, ,  
02/09/2018 13:26, 16, 73, 9 ,4, 7, NW, None, None, ,  
02/09/2018 13:21, 16, 72, 9 ,4, 11, NW, None, None, ,  
02/09/2018 13:12, 21, 70, 12 ,1, 1, NW, None, None, ,  
02/09/2018 13:11, 20, 70, 12 ,1, 1, NW, None, None, ,  
02/09/2018 13:01, 21, 70, 13 ,0, 2, E, None, None, ,  
02/09/2018 12:57, 20, 71, 13 ,1, 2, NW, None, None, ,  
02/09/2018 12:51, 20, 74, 13 ,1, 2, SE, None, None, ,  
02/09/2018 12:42, 17, 74, 11 ,0, 3, NW, None, None, ,  
02/09/2018 12:41, 17, 73, 10 ,1, 3, N, None, None, ,  
02/09/2018 12:31, 19, 73, 12 ,2, 5, NW, Yes, , ,  
02/09/2018 12:27, 20, 72, 13 ,3, 5, W, None, None, ,  
02/09/2018 12:21, 21, 75, 14 ,1, 1, NW, None, None, ,  
02/09/2018 12:11, 19, 78, 13 ,1, 2, NW, None, None, ,  
02/09/2018 12:11, 19, 78, 13 ,1, 2, NW, None, None, ,  
02/09/2018 12:01, 20, 79, 15 ,0, 2, W, None, None, ,  
02/09/2018 11:56, 20, 80, 15 ,1, 4, NE, None, None, ,  
02/09/2018 11:50, 18, 80, 13 ,2, 4, NE, None, None, ,  
02/09/2018 11:41, 17, 82, 13 ,2, 4, NE, None, None, ,  
02/09/2018 11:40, 17, 82, 13 ,2, 4, N, None, None, ,  
02/09/2018 11:30, 14, 84, 10 ,1, 2, NE, None, None, ,  
02/09/2018 11:27, 12, 83, 8 ,2, 2, E, None, None, ,  
02/09/2018 11:20, 10, 82, 6 ,2, 2, N, None, None, ,  
02/09/2018 11:12, 10, 83, 6 ,0, 4, N, None, None, ,  
02/09/2018 11:10, 10, 83, 6 ,1, 7, NW, None, None, ,  
02/09/2018 11:00, 10, 83, 6 ,4, 6, NW, None, None, ,  
02/09/2018 10:56, 10, 83, 6 ,4, 6, NW, None, None, ,  
02/09/2018 10:50, 11, 83, 6 ,3, 5, NW, None, None, ,  
02/09/2018 10:42, 11, 83, 7 ,2, 4, NW, None, None, ,  
02/09/2018 10:40, 11, 84, 7 ,1, 4, S, None, None, ,  
02/09/2018 10:30, 10, 84, 7 ,0, 6, E, Yes, , ,  
02/09/2018 10:26, 10, 84, 6 ,1, 6, NW, None, None, ,  
02/09/2018 10:20, 10, 84, 6 ,2, 4, NW, None, None, ,  
02/09/2018 10:11, 9, 85, 5 ,1, 3, NW, None, None, ,  
02/09/2018 10:10, 9, 85, 6 ,1, 3, NW, None, None, ,  
02/09/2018 10:00, 8, 85, 5 ,0, 4, SE, Yes, , ,  
02/09/2018 09:56, 8, 85, 4 ,1, 6, NW, None, None, ,  
02/09/2018 09:50, 8, 85, 5 ,3, 10, NW, None, None, ,  
02/09/2018 09:41, 9, 86, 6 ,7, 11, NW, None, None, ,  
02/09/2018 09:40, 9, 86, 6 ,7, 11, NW, None, None, ,  
02/09/2018 09:30, 11, 86, 8 ,7, 9, NW, None, None, ,  
02/09/2018 09:26, 12, 87, 9 ,0, 8, E, None, None, ,  
02/09/2018 09:20, 12, 87, 9 ,6, 8, NW, None, None, ,  
02/09/2018 09:11, 13, 88, 10 ,1, 3, W, None, None, ,  
02/09/2018 09:10, 13, 88, 10 ,1, 2, N, None, None, ,  
02/09/2018 09:00, 12, 88, 10 ,1, 2, N, None, None, ,  
02/09/2018 08:56, 12, 88, 9 ,2, 2, N, None, None, ,  
02/09/2018 08:50, 11, 88, 9 ,1, 2, N, None, None, ,  
02/09/2018 08:41, 11, 88, 8 ,1, 3, N, Yes, , ,  
02/09/2018 08:40, 11, 88, 8 ,1, 3, NW, Yes, , ,  
02/09/2018 08:30, 11, 87, 8 ,1, 2, SW, None, None, ,  
02/09/2018 08:26, 11, 88, 8 ,0, 2, NW, None, None, ,  
02/09/2018 08:20, 11, 88, 8 ,0, 4, SE, Yes, , ,  
02/09/2018 08:11, 10, 87, 7 ,3, 4, S, None, None, ,  
02/09/2018 08:10, 10, 87, 7 ,3, 4, SW, None, None, ,  
02/09/2018 08:00, 10, 87, 7 ,0, 2, S, None, None, ,  
02/09/2018 07:56, 10, 87, 6 ,0, 3, S, None, None, ,  
02/09/2018 07:50, 9, 87, 6 ,2, 3, S, None, None, ,  
02/09/2018 07:40, 10, 87, 7 ,0, 3, N, None, None, ,  
02/09/2018 07:40, 10, 88, 7 ,0, 3, N, None, None, ,  
02/09/2018 07:30, 9, 87, 6 ,4, 5, N, None, None, ,  
02/09/2018 07:25, 10, 87, 6 ,1, 5, SW, None, None, ,  
02/09/2018 07:20, 9, 87, 6 ,2, 7, E, None, None, ,  
02/09/2018 07:10, 10, 87, 7 ,4, 6, S, None, None, ,  
02/09/2018 07:09, 10, 88, 7 ,3, 6, S, None, None, ,  
02/09/2018 07:00, 10, 87, 6 ,0, 1, NE, None, None, ,  
02/09/2018 06:57, 10, 87, 7 ,1, 2, NE, None, None, ,  
02/09/2018 06:50, 9, 87, 6 ,2, 2, NE, None, None, ,  
02/09/2018 06:42, 9, 87, 6 ,1, 2, W, None, None, ,  
02/09/2018 06:40, 9, 87, 6 ,0, 2, NW, Yes, , ,  
02/09/2018 06:29, 9, 87, 6 ,1, 2, NW, None, None, ,  
02/09/2018 06:27, 9, 87, 6 ,1, 2, NW, None, None, ,  
02/09/2018 06:19, 8, 87, 5 ,2, 4, N, None, None, ,  
02/09/2018 06:12, 9, 87, 6 ,2, 6, NE, Yes, , ,  
02/09/2018 06:09, 9, 86, 6 ,2, 6, NW, Yes, , ,  
02/09/2018 05:59, 10, 87, 7 ,2, 4, NW, Yes, , ,  
02/09/2018 05:57, 10, 88, 8 ,1, 4, SW, Yes, , ,  
02/09/2018 05:49, 10, 88, 7 ,2, 6, SW, Yes, , ,  
02/09/2018 05:43, 10, 88, 7 ,2, 5, S, Yes, , ,  
02/09/2018 05:39, 10, 87, 7 ,4, 5, S, Yes, , ,  
02/09/2018 05:29, 10, 88, 7 ,1, 2, S, Yes, , ,  
02/09/2018 05:28, 10, 88, 7 ,0, 2, NE, Yes, , ,  
02/09/2018 05:19, 10, 88, 7 ,1, 2, N, Yes, , ,  
02/09/2018 05:13, 10, 88, 7 ,1, 3, NE, Yes, , ,  
02/09/2018 05:09, 10, 88, 7 ,1, 3, N, Yes, , ,  
02/09/2018 04:59, 10, 88, 8 ,0, 4, SW, Yes, , ,  
02/09/2018 04:57, 10, 88, 8 ,0, 4, SW, Yes, , ,  
02/09/2018 04:49, 11, 88, 8 ,0, 1, NW, None, None, ,  
02/09/2018 04:43, 11, 88, 8 ,0, 1, NW, None, None, ,  
02/09/2018 04:39, 11, 88, 8 ,0, 2, NW, None, None, ,  
02/09/2018 04:29, 11, 88, 8 ,1, 2, SW, Yes, , ,  
02/09/2018 04:28, 11, 88, 8 ,1, 2, W, Yes, , ,  
02/09/2018 04:19, 10, 88, 7 ,1, 4, S, Yes, , ,  
02/09/2018 04:12, 10, 88, 8 ,3, 6, S, Yes, , ,  
02/09/2018 04:09, 10, 88, 8 ,4, 6, SW, None, None, ,  
02/09/2018 03:59, 11, 88, 8 ,2, 7, W, Yes, , ,  
02/09/2018 03:58, 11, 88, 8 ,2, 8, W, Yes, , ,  
02/09/2018 03:49, 12, 89, 10 ,7, 8, NW, Yes, , ,  
02/09/2018 03:42, 13, 89, 10 ,0, 4, NE, Yes, , ,  
02/09/2018 03:39, 13, 90, 11 ,1, 6, SW, Yes, , ,  
02/09/2018 03:29, 13, 90, 10 ,4, 4, SW, Yes, , ,  
02/09/2018 03:28, 13, 90, 10 ,4, 4, SW, Yes, , ,  
02/09/2018 03:19, 14, 90, 11 ,1, 3, SW, Yes, , ,  
02/09/2018 03:13, 14, 90, 12 ,1, 6, W, Yes, , ,  
02/09/2018 03:09, 14, 90, 12 ,2, 6, W, Yes, , ,  
02/09/2018 02:59, 15, 91, 13 ,4, 6, NW, Yes, , ,  
02/09/2018 02:58, 15, 91, 13 ,4, 6, NW, Yes, , ,  
02/09/2018 02:49, 15, 91, 13 ,2, 4, NW, Yes, , ,  
02/09/2018 02:43, 15, 91, 13 ,1, 6, W, Yes, , ,  
02/09/2018 02:39, 15, 91, 13 ,4, 6, NW, None, None, ,  
02/09/2018 02:29, 16, 92, 14 ,1, 7, W, Yes, , ,  
02/09/2018 02:28, 16, 92, 14 ,1, 7, NW, Yes, , ,  
02/09/2018 02:19, 16, 91, 14 ,7, 9, S, Yes, , ,  
02/09/2018 02:13, 16, 91, 14 ,0, 4, NW, Yes, , ,  
02/09/2018 02:09, 16, 91, 15 ,0, 4, S, Yes, , ,  
02/09/2018 01:59, 17, 91, 15 ,4, 13, W, Yes, , ,  
02/09/2018 01:58, 17, 91, 15 ,4, 13, W, Yes, , ,  
02/09/2018 01:48, 21, 94, 20 ,6, 6, W, Yes, , ,  
02/09/2018 01:43, 22, 95, 21 ,3, 4, NW, Yes, , ,  
02/09/2018 01:38, 22, 95, 21 ,1, 6, SW, Yes, , ,  
02/09/2018 01:28, 21, 94, 20 ,0, 5, NW, Yes, , ,  
02/09/2018 01:27, 21, 94, 20 ,1, 5, NW, Yes, , ,  
02/09/2018 01:18, 21, 94, 20 ,3, 9, NW, Yes, , ,  
02/09/2018 01:13, 23, 94, 21 ,6, 16, NW, Yes, , ,  
02/09/2018 01:08, 24, 94, 23 ,8, 16, NW, Yes, , ,  
02/09/2018 00:58, 30, 95, 29 ,9, 17, W, Yes, , ,  
02/09/2018 00:58, 30, 95, 29 ,7, 17, W, Yes, , ,  
02/09/2018 00:48, 30, 94, 29 ,9, 14, SW, Yes, , ,  
02/09/2018 00:43, 30, 93, 29 ,9, 14, W, Yes, , ,  
02/09/2018 00:38, 30, 92, 28 ,9, 15, W, Yes, , ,  
02/09/2018 00:28, 31, 85, 28 ,10, 21, W, Yes, , ,  
02/09/2018 00:28, 31, 85, 27 ,9, 21, W, Yes, , ,  
02/09/2018 00:18, 32, 77, 26 ,19, 24, W, Yes, , ,  
02/09/2018 00:12, 33, 76, 26 ,9, 12, SW, None, None, ,  
02/09/2018 00:08, 32, 76, 26 ,10, 12, SW, None, None, ,  
02/08/2018 23:58, 33, 74, 25 ,9, 14, SW, None, None, ,  
02/08/2018 23:58, 33, 74, 25 ,10, 14, SW, None, None, ,  
02/08/2018 23:48, 33, 72, 25 ,12, 19, SW, None, None, ,  
02/08/2018 23:43, 33, 70, 24 ,11, 15, SW, None, None, ,  
02/08/2018 23:38, 34, 64, 23 ,12, 22, SW, None, None, ,  
02/08/2018 23:28, 34, 61, 22 ,17, 21, SW, None, None, ,  
02/08/2018 23:27, 34, 62, 23 ,17, 22, SW, None, None, ,  
02/08/2018 23:18, 34, 63, 22 ,12, 17, SW, None, None, ,  
02/08/2018 23:13, 34, 61, 22 ,14, 17, SW, None, None, ,  
02/08/2018 23:08, 34, 60, 22 ,14, 17, SW, None, None, ,  
02/08/2018 22:58, 34, 63, 23 ,12, 16, SW, None, None, ,  
02/08/2018 22:58, 34, 63, 23 ,13, 16, SW, None, None, ,  
02/08/2018 22:48, 33, 74, 26 ,7, 12, SW, None, None, ,  
02/08/2018 22:42, 33, 78, 27 ,2, 9, SW, None, None, ,  
02/08/2018 22:38, 33, 79, 27 ,4, 9, W, None, None, ,  
02/08/2018 22:28, 33, 76, 27 ,7, 11, NW, None, None, ,  
02/08/2018 22:28, 33, 76, 27 ,7, 11, NW, None, None, ,  
02/08/2018 22:18, 34, 74, 26 ,9, 15, NW, Yes, , ,  
02/08/2018 22:13, 34, 71, 26 ,7, 12, NW, None, None, ,  
02/08/2018 22:08, 34, 68, 25 ,9, 15, NW, None, None, ,  
02/08/2018 21:58, 35, 62, 24 ,15, 19, SW, None, None, ,  
02/08/2018 21:58, 35, 62, 24 ,15, 19, SW, None, None, ,  
02/08/2018 21:48, 34, 70, 26 ,9, 18, W, None, None, ,  
02/08/2018 21:43, 35, 68, 26 ,12, 21, W, None, None, ,  
02/08/2018 21:38, 35, 66, 25 ,16, 21, SW, None, None, ,  
02/08/2018 21:28, 35, 66, 25 ,16, 27, SW, None, None, ,  
02/08/2018 21:27, 35, 65, 25 ,17, 27, SW, None, None, ,  
02/08/2018 21:18, 35, 70, 26 ,10, 14, SW, None, None, ,  
02/08/2018 21:12, 35, 70, 26 ,11, 16, SW, None, None, ,  
02/08/2018 21:08, 35, 69, 26 ,12, 16, SW, None, None, ,  
02/08/2018 20:58, 35, 67, 26 ,11, 21, SW, Yes, , ,  
02/08/2018 20:58, 35, 67, 26 ,11, 21, SW, Yes, , ,  
02/08/2018 20:48, 35, 68, 26 ,16, 20, SW, None, None, ,  
02/08/2018 20:43, 35, 69, 26 ,9, 11, SW, None, None, ,  
02/08/2018 20:38, 35, 67, 26 ,9, 10, SW, None, None, ,  
02/08/2018 20:28, 35, 68, 26 ,10, 13, W, None, None, ,  
02/08/2018 20:27, 35, 68, 26 ,10, 14, W, None, None, ,  
02/08/2018 20:17, 36, 65, 25 ,7, 18, W, None, None, ,  
02/08/2018 20:13, 36, 64, 25 ,12, 21, SW, Yes, , ,  
02/08/2018 20:07, 36, 61, 24 ,17, 23, SW, None, None, ,  
02/08/2018 19:57, 35, 66, 25 ,9, 13, SW, None, None, ,  
02/08/2018 19:57, 35, 66, 25 ,9, 13, SW, None, None, ,  
02/08/2018 19:47, 35, 66, 25 ,8, 13, W, None, None, ,  
02/08/2018 19:42, 35, 67, 26 ,7, 12, W, None, None, ,  
02/08/2018 19:37, 36, 67, 26 ,8, 12, W, None, None, ,  
02/08/2018 19:28, 36, 64, 25 ,9, 14, SW, None, None, ,  
02/08/2018 19:27, 36, 65, 25 ,9, 14, SW, None, None, ,  
02/08/2018 19:17, 35, 69, 26 ,5, 10, S, None, None, ,  
02/08/2018 19:13, 35, 67, 26 ,7, 11, SW, None, None, ,  
02/08/2018 19:07, 36, 66, 26 ,9, 12, SW, Yes, , ,  
02/08/2018 18:58, 36, 67, 26 ,9, 12, SW, Yes, , ,  
02/08/2018 18:57, 36, 67, 26 ,8, 12, W, Yes, , ,  
02/08/2018 18:47, 36, 64, 25 ,8, 15, SW, Yes, , ,  
02/08/2018 18:43, 36, 65, 25 ,8, 15, SW, None, None, ,  
02/08/2018 18:37, 36, 65, 25 ,9, 13, SW, None, None, ,  
02/08/2018 18:27, 36, 65, 25 ,9, 14, SW, None, None, ,  
02/08/2018 18:26, 36, 65, 25 ,9, 14, SW, None, None, ,  
Change End Date:

Copyright © 1998-2015 Vaisala, Inc.
All Rights Reserved
Send comments about the data to:
SCAN Web ® is a registered trademark of Vaisala, Inc.
SCAN Web Version 6.0